sensor_id;sensor_type;location;lat;lon;timestamp;temperature;humidity
13426;DHT22;6785;57.918;12.530;2023-06-14T00:02:20;14.80;99.90
13426;DHT22;6785;57.918;12.530;2023-06-14T00:04:47;14.80;99.90
13426;DHT22;6785;57.918;12.530;2023-06-14T00:07:16;14.70;99.90
13426;DHT22;6785;57.918;12.530;2023-06-14T00:09:44;14.70;99.90
13426;DHT22;6785;57.918;12.530;2023-06-14T00:12:11;14.70;99.90
13426;DHT22;6785;57.918;12.530;2023-06-14T00:14:40;14.60;99.90
13426;DHT22;6785;57.918;12.530;2023-06-14T00:17:06;14.60;99.90
13426;DHT22;6785;57.918;12.530;2023-06-14T00:19:34;14.50;99.90
13426;DHT22;6785;57.918;12.530;2023-06-14T00:22:02;14.50;99.90
13426;DHT22;6785;57.918;12.530;2023-06-14T00:24:29;14.50;99.90
13426;DHT22;6785;57.918;12.530;2023-06-14T00:26:55;14.50;99.90
13426;DHT22;6785;57.918;12.530;2023-06-14T00:29:22;14.50;99.90
13426;DHT22;6785;57.918;12.530;2023-06-14T00:31:50;14.50;99.90
13426;DHT22;6785;57.918;12.530;2023-06-14T00:34:17;14.40;99.90
13426;DHT22;6785;57.918;12.530;2023-06-14T00:36:44;14.40;99.90
13426;DHT22;6785;57.918;12.530;2023-06-14T00:39:11;14.30;99.90
13426;DHT22;6785;57.918;12.530;2023-06-14T00:41:39;14.30;99.90
13426;DHT22;6785;57.918;12.530;2023-06-14T00:44:06;14.20;99.90
13426;DHT22;6785;57.918;12.530;2023-06-14T00:46:33;14.20;99.90
13426;DHT22;6785;57.918;12.530;2023-06-14T00:49:02;14.10;99.90
13426;DHT22;6785;57.918;12.530;2023-06-14T00:51:30;14.00;99.90
13426;DHT22;6785;57.918;12.530;2023-06-14T00:53:57;14.00;99.90
13426;DHT22;6785;57.918;12.530;2023-06-14T00:56:24;14.00;99.90
13426;DHT22;6785;57.918;12.530;2023-06-14T00:58:51;13.90;99.90
13426;DHT22;6785;57.918;12.530;2023-06-14T01:01:18;13.90;99.90
13426;DHT22;6785;57.918;12.530;2023-06-14T01:03:46;13.90;99.90
13426;DHT22;6785;57.918;12.530;2023-06-14T01:06:20;13.80;99.90
13426;DHT22;6785;57.918;12.530;2023-06-14T01:09:01;13.70;99.90
13426;DHT22;6785;57.918;12.530;2023-06-14T01:11:47;13.60;99.90
13426;DHT22;6785;57.918;12.530;2023-06-14T01:14:21;13.50;99.90
13426;DHT22;6785;57.918;12.530;2023-06-14T01:16:49;13.30;99.90
13426;DHT22;6785;57.918;12.530;2023-06-14T01:19:19;13.20;99.90
13426;DHT22;6785;57.918;12.530;2023-06-14T01:21:49;13.10;99.90
13426;DHT22;6785;57.918;12.530;2023-06-14T01:24:17;13.00;99.90
13426;DHT22;6785;57.918;12.530;2023-06-14T01:26:49;12.80;99.90
13426;DHT22;6785;57.918;12.530;2023-06-14T01:29:17;12.70;99.90
13426;DHT22;6785;57.918;12.530;2023-06-14T01:31:44;12.60;99.90
13426;DHT22;6785;57.918;12.530;2023-06-14T01:34:12;12.60;99.90
13426;DHT22;6785;57.918;12.530;2023-06-14T01:36:41;12.60;99.90
13426;DHT22;6785;57.918;12.530;2023-06-14T01:39:12;12.60;99.90
13426;DHT22;6785;57.918;12.530;2023-06-14T01:41:43;12.60;99.90
13426;DHT22;6785;57.918;12.530;2023-06-14T01:44:12;12.70;99.90
13426;DHT22;6785;57.918;12.530;2023-06-14T01:46:42;12.60;99.90
13426;DHT22;6785;57.918;12.530;2023-06-14T01:49:10;12.60;99.90
13426;DHT22;6785;57.918;12.530;2023-06-14T01:51:37;12.50;99.90
13426;DHT22;6785;57.918;12.530;2023-06-14T01:54:05;12.50;99.90
13426;DHT22;6785;57.918;12.530;2023-06-14T01:56:32;12.50;99.90
13426;DHT22;6785;57.918;12.530;2023-06-14T01:59:00;12.40;99.90
13426;DHT22;6785;57.918;12.530;2023-06-14T02:01:27;12.30;99.90
13426;DHT22;6785;57.918;12.530;2023-06-14T02:03:54;12.20;99.90
13426;DHT22;6785;57.918;12.530;2023-06-14T02:06:21;12.20;99.90
13426;DHT22;6785;57.918;12.530;2023-06-14T02:08:48;12.20;99.90
13426;DHT22;6785;57.918;12.530;2023-06-14T02:11:15;12.20;99.90
13426;DHT22;6785;57.918;12.530;2023-06-14T02:13:42;12.10;99.90
13426;DHT22;6785;57.918;12.530;2023-06-14T02:16:10;12.10;99.90
13426;DHT22;6785;57.918;12.530;2023-06-14T02:18:38;12.00;99.90
13426;DHT22;6785;57.918;12.530;2023-06-14T02:21:04;12.00;99.90
13426;DHT22;6785;57.918;12.530;2023-06-14T02:23:31;12.00;99.90
13426;DHT22;6785;57.918;12.530;2023-06-14T02:25:59;11.90;99.90
13426;DHT22;6785;57.918;12.530;2023-06-14T02:28:25;11.80;99.90
13426;DHT22;6785;57.918;12.530;2023-06-14T02:30:52;11.80;99.90
13426;DHT22;6785;57.918;12.530;2023-06-14T02:33:20;11.70;99.90
13426;DHT22;6785;57.918;12.530;2023-06-14T02:35:47;11.70;99.90
13426;DHT22;6785;57.918;12.530;2023-06-14T02:38:15;11.60;99.90
13426;DHT22;6785;57.918;12.530;2023-06-14T02:40:42;11.60;99.90
13426;DHT22;6785;57.918;12.530;2023-06-14T02:43:09;11.60;99.90
13426;DHT22;6785;57.918;12.530;2023-06-14T02:45:36;11.50;99.90
13426;DHT22;6785;57.918;12.530;2023-06-14T02:48:03;11.50;99.90
13426;DHT22;6785;57.918;12.530;2023-06-14T02:50:32;11.60;99.90
13426;DHT22;6785;57.918;12.530;2023-06-14T02:52:59;11.50;99.90
13426;DHT22;6785;57.918;12.530;2023-06-14T02:55:26;11.50;99.90
13426;DHT22;6785;57.918;12.530;2023-06-14T02:57:53;11.50;99.90
13426;DHT22;6785;57.918;12.530;2023-06-14T03:00:20;11.50;99.90
13426;DHT22;6785;57.918;12.530;2023-06-14T03:02:47;11.50;99.90
13426;DHT22;6785;57.918;12.530;2023-06-14T03:05:14;11.60;99.90
13426;DHT22;6785;57.918;12.530;2023-06-14T03:07:42;11.60;99.90
13426;DHT22;6785;57.918;12.530;2023-06-14T03:10:10;11.50;99.90
13426;DHT22;6785;57.918;12.530;2023-06-14T03:12:38;11.60;99.90
13426;DHT22;6785;57.918;12.530;2023-06-14T03:15:06;11.70;99.90
13426;DHT22;6785;57.918;12.530;2023-06-14T03:17:34;11.70;99.90
13426;DHT22;6785;57.918;12.530;2023-06-14T03:20:05;11.70;99.90
13426;DHT22;6785;57.918;12.530;2023-06-14T03:22:34;11.80;99.90
13426;DHT22;6785;57.918;12.530;2023-06-14T03:25:02;11.90;99.90
13426;DHT22;6785;57.918;12.530;2023-06-14T03:27:30;11.90;99.90
13426;DHT22;6785;57.918;12.530;2023-06-14T03:29:57;12.00;99.90
13426;DHT22;6785;57.918;12.530;2023-06-14T03:32:24;12.00;99.90
13426;DHT22;6785;57.918;12.530;2023-06-14T03:34:50;12.00;99.90
13426;DHT22;6785;57.918;12.530;2023-06-14T03:37:18;12.10;99.90
13426;DHT22;6785;57.918;12.530;2023-06-14T03:39:45;12.20;99.90
13426;DHT22;6785;57.918;12.530;2023-06-14T03:42:14;12.20;99.90
13426;DHT22;6785;57.918;12.530;2023-06-14T03:44:41;12.30;99.90
13426;DHT22;6785;57.918;12.530;2023-06-14T03:47:08;12.30;99.90
13426;DHT22;6785;57.918;12.530;2023-06-14T03:49:35;12.30;99.90
13426;DHT22;6785;57.918;12.530;2023-06-14T03:52:03;12.40;99.90
13426;DHT22;6785;57.918;12.530;2023-06-14T03:54:30;12.40;99.90
13426;DHT22;6785;57.918;12.530;2023-06-14T03:56:58;12.50;99.90
13426;DHT22;6785;57.918;12.530;2023-06-14T03:59:26;12.60;99.90
13426;DHT22;6785;57.918;12.530;2023-06-14T04:01:54;12.60;99.90
13426;DHT22;6785;57.918;12.530;2023-06-14T04:04:21;12.70;99.90
13426;DHT22;6785;57.918;12.530;2023-06-14T04:06:54;12.80;99.90
13426;DHT22;6785;57.918;12.530;2023-06-14T04:09:22;12.90;99.90
13426;DHT22;6785;57.918;12.530;2023-06-14T04:11:50;13.10;99.90
13426;DHT22;6785;57.918;12.530;2023-06-14T04:14:18;13.20;99.90
13426;DHT22;6785;57.918;12.530;2023-06-14T04:16:47;13.20;99.90
13426;DHT22;6785;57.918;12.530;2023-06-14T04:19:14;13.30;99.90
13426;DHT22;6785;57.918;12.530;2023-06-14T04:21:42;13.40;99.90
13426;DHT22;6785;57.918;12.530;2023-06-14T04:24:09;13.40;99.90
13426;DHT22;6785;57.918;12.530;2023-06-14T04:26:39;13.50;99.90
13426;DHT22;6785;57.918;12.530;2023-06-14T04:29:06;13.70;99.90
13426;DHT22;6785;57.918;12.530;2023-06-14T04:31:33;13.70;99.90
13426;DHT22;6785;57.918;12.530;2023-06-14T04:34:04;13.90;99.90
13426;DHT22;6785;57.918;12.530;2023-06-14T04:36:32;14.00;99.90
13426;DHT22;6785;57.918;12.530;2023-06-14T04:39:00;14.10;99.90
13426;DHT22;6785;57.918;12.530;2023-06-14T04:41:28;14.20;99.90
13426;DHT22;6785;57.918;12.530;2023-06-14T04:43:56;14.30;99.90
13426;DHT22;6785;57.918;12.530;2023-06-14T04:46:27;14.40;99.90
13426;DHT22;6785;57.918;12.530;2023-06-14T04:48:54;14.50;99.90
13426;DHT22;6785;57.918;12.530;2023-06-14T04:51:23;14.70;99.90
13426;DHT22;6785;57.918;12.530;2023-06-14T04:53:55;14.80;99.90
13426;DHT22;6785;57.918;12.530;2023-06-14T04:56:23;14.90;99.90
13426;DHT22;6785;57.918;12.530;2023-06-14T04:58:51;15.00;99.90
13426;DHT22;6785;57.918;12.530;2023-06-14T05:01:19;15.20;99.90
13426;DHT22;6785;57.918;12.530;2023-06-14T05:03:48;15.30;99.90
13426;DHT22;6785;57.918;12.530;2023-06-14T05:06:15;15.40;99.90
13426;DHT22;6785;57.918;12.530;2023-06-14T05:08:44;15.60;99.90
13426;DHT22;6785;57.918;12.530;2023-06-14T05:11:11;15.70;99.90
13426;DHT22;6785;57.918;12.530;2023-06-14T05:13:38;15.90;99.90
13426;DHT22;6785;57.918;12.530;2023-06-14T05:16:06;16.00;99.90
13426;DHT22;6785;57.918;12.530;2023-06-14T05:18:33;16.10;99.90
13426;DHT22;6785;57.918;12.530;2023-06-14T05:21:01;16.20;99.90
13426;DHT22;6785;57.918;12.530;2023-06-14T05:23:29;16.40;99.90
13426;DHT22;6785;57.918;12.530;2023-06-14T05:25:57;16.50;99.90
13426;DHT22;6785;57.918;12.530;2023-06-14T05:28:25;16.60;99.90
13426;DHT22;6785;57.918;12.530;2023-06-14T05:30:52;16.60;99.90
13426;DHT22;6785;57.918;12.530;2023-06-14T05:33:22;16.70;99.90
13426;DHT22;6785;57.918;12.530;2023-06-14T05:35:49;16.90;99.90
13426;DHT22;6785;57.918;12.530;2023-06-14T05:38:16;17.00;99.90
13426;DHT22;6785;57.918;12.530;2023-06-14T05:40:43;17.10;99.90
13426;DHT22;6785;57.918;12.530;2023-06-14T05:43:12;17.30;99.90
13426;DHT22;6785;57.918;12.530;2023-06-14T05:45:40;17.40;99.90
13426;DHT22;6785;57.918;12.530;2023-06-14T05:48:07;17.50;99.90
13426;DHT22;6785;57.918;12.530;2023-06-14T05:50:34;17.70;99.90
13426;DHT22;6785;57.918;12.530;2023-06-14T05:53:01;17.90;99.90
13426;DHT22;6785;57.918;12.530;2023-06-14T05:55:28;18.00;99.90
13426;DHT22;6785;57.918;12.530;2023-06-14T05:57:55;18.10;99.90
13426;DHT22;6785;57.918;12.530;2023-06-14T06:00:23;18.30;99.90
13426;DHT22;6785;57.918;12.530;2023-06-14T06:02:50;18.30;99.90
13426;DHT22;6785;57.918;12.530;2023-06-14T06:05:18;18.30;99.90
13426;DHT22;6785;57.918;12.530;2023-06-14T06:07:45;18.50;99.90
13426;DHT22;6785;57.918;12.530;2023-06-14T06:10:12;18.60;99.90
13426;DHT22;6785;57.918;12.530;2023-06-14T06:12:40;18.70;99.90
13426;DHT22;6785;57.918;12.530;2023-06-14T06:15:09;18.80;99.90
13426;DHT22;6785;57.918;12.530;2023-06-14T06:17:38;18.90;99.90
13426;DHT22;6785;57.918;12.530;2023-06-14T06:20:06;19.20;99.90
13426;DHT22;6785;57.918;12.530;2023-06-14T06:22:35;19.30;99.90
13426;DHT22;6785;57.918;12.530;2023-06-14T06:25:02;19.50;99.90
13426;DHT22;6785;57.918;12.530;2023-06-14T06:27:29;19.70;99.90
13426;DHT22;6785;57.918;12.530;2023-06-14T06:29:56;19.90;99.90
13426;DHT22;6785;57.918;12.530;2023-06-14T06:32:23;20.10;99.90
13426;DHT22;6785;57.918;12.530;2023-06-14T06:34:51;20.30;99.90
13426;DHT22;6785;57.918;12.530;2023-06-14T06:37:19;20.50;99.90
13426;DHT22;6785;57.918;12.530;2023-06-14T06:39:46;20.60;99.90
13426;DHT22;6785;57.918;12.530;2023-06-14T06:42:13;20.90;99.90
13426;DHT22;6785;57.918;12.530;2023-06-14T06:44:40;21.10;99.90
13426;DHT22;6785;57.918;12.530;2023-06-14T06:47:07;21.10;99.90
13426;DHT22;6785;57.918;12.530;2023-06-14T06:49:35;21.10;99.90
13426;DHT22;6785;57.918;12.530;2023-06-14T06:52:04;21.40;99.90
13426;DHT22;6785;57.918;12.530;2023-06-14T06:54:33;21.40;99.90
13426;DHT22;6785;57.918;12.530;2023-06-14T06:57:00;21.50;99.90
13426;DHT22;6785;57.918;12.530;2023-06-14T06:59:27;21.80;99.90
13426;DHT22;6785;57.918;12.530;2023-06-14T07:01:55;21.90;99.90
13426;DHT22;6785;57.918;12.530;2023-06-14T07:04:22;22.10;99.90
13426;DHT22;6785;57.918;12.530;2023-06-14T07:06:49;22.10;98.10
13426;DHT22;6785;57.918;12.530;2023-06-14T07:09:18;22.50;99.30
13426;DHT22;6785;57.918;12.530;2023-06-14T07:11:47;22.90;97.80
13426;DHT22;6785;57.918;12.530;2023-06-14T07:14:14;23.20;96.20
13426;DHT22;6785;57.918;12.530;2023-06-14T07:16:41;23.50;96.80
13426;DHT22;6785;57.918;12.530;2023-06-14T07:19:08;23.80;95.50
13426;DHT22;6785;57.918;12.530;2023-06-14T07:21:35;24.00;94.40
13426;DHT22;6785;57.918;12.530;2023-06-14T07:24:04;24.20;95.30
13426;DHT22;6785;57.918;12.530;2023-06-14T07:26:33;24.40;95.50
13426;DHT22;6785;57.918;12.530;2023-06-14T07:29:01;24.60;94.20
13426;DHT22;6785;57.918;12.530;2023-06-14T07:31:28;24.60;93.90
13426;DHT22;6785;57.918;12.530;2023-06-14T07:33:55;24.90;95.00
13426;DHT22;6785;57.918;12.530;2023-06-14T07:36:22;24.90;93.30
13426;DHT22;6785;57.918;12.530;2023-06-14T07:38:49;25.00;95.20
13426;DHT22;6785;57.918;12.530;2023-06-14T07:41:16;25.00;96.50
13426;DHT22;6785;57.918;12.530;2023-06-14T07:43:44;25.20;95.90
13426;DHT22;6785;57.918;12.530;2023-06-14T07:46:11;25.40;94.20
13426;DHT22;6785;57.918;12.530;2023-06-14T07:48:38;25.70;93.40
13426;DHT22;6785;57.918;12.530;2023-06-14T07:51:05;26.00;90.10
13426;DHT22;6785;57.918;12.530;2023-06-14T07:53:32;26.10;89.80
13426;DHT22;6785;57.918;12.530;2023-06-14T07:55:59;26.10;93.10
13426;DHT22;6785;57.918;12.530;2023-06-14T07:58:26;26.30;91.20
13426;DHT22;6785;57.918;12.530;2023-06-14T08:00:55;26.60;87.90
13426;DHT22;6785;57.918;12.530;2023-06-14T08:03:21;26.80;89.20
13426;DHT22;6785;57.918;12.530;2023-06-14T08:05:49;26.80;90.40
13426;DHT22;6785;57.918;12.530;2023-06-14T08:08:16;26.90;83.60
13426;DHT22;6785;57.918;12.530;2023-06-14T08:10:44;26.90;89.10
13426;DHT22;6785;57.918;12.530;2023-06-14T08:13:11;26.90;87.70
13426;DHT22;6785;57.918;12.530;2023-06-14T08:15:38;27.10;82.00
13426;DHT22;6785;57.918;12.530;2023-06-14T08:18:07;27.00;80.00
13426;DHT22;6785;57.918;12.530;2023-06-14T08:20:33;27.00;83.10
13426;DHT22;6785;57.918;12.530;2023-06-14T08:23:02;26.90;79.50
13426;DHT22;6785;57.918;12.530;2023-06-14T08:25:30;27.00;87.30
13426;DHT22;6785;57.918;12.530;2023-06-14T08:27:58;27.20;82.20
13426;DHT22;6785;57.918;12.530;2023-06-14T08:30:25;27.40;84.80
13426;DHT22;6785;57.918;12.530;2023-06-14T08:32:52;27.50;79.90
13426;DHT22;6785;57.918;12.530;2023-06-14T08:35:22;27.20;78.50
13426;DHT22;6785;57.918;12.530;2023-06-14T08:37:49;27.30;86.40
13426;DHT22;6785;57.918;12.530;2023-06-14T08:40:20;27.50;82.90
13426;DHT22;6785;57.918;12.530;2023-06-14T08:42:51;27.70;79.70
13426;DHT22;6785;57.918;12.530;2023-06-14T08:45:19;27.40;77.60
13426;DHT22;6785;57.918;12.530;2023-06-14T08:47:47;27.40;74.60
13426;DHT22;6785;57.918;12.530;2023-06-14T08:50:19;27.30;74.20
13426;DHT22;6785;57.918;12.530;2023-06-14T08:52:53;27.10;72.80
13426;DHT22;6785;57.918;12.530;2023-06-14T08:55:23;27.00;76.30
13426;DHT22;6785;57.918;12.530;2023-06-14T08:57:54;26.90;75.90
13426;DHT22;6785;57.918;12.530;2023-06-14T09:00:23;27.20;74.30
13426;DHT22;6785;57.918;12.530;2023-06-14T09:02:51;27.10;75.70
13426;DHT22;6785;57.918;12.530;2023-06-14T09:05:25;27.30;76.60
13426;DHT22;6785;57.918;12.530;2023-06-14T09:07:53;27.30;73.40
13426;DHT22;6785;57.918;12.530;2023-06-14T09:10:22;27.50;77.80
13426;DHT22;6785;57.918;12.530;2023-06-14T09:12:51;27.50;72.60
13426;DHT22;6785;57.918;12.530;2023-06-14T09:15:18;27.40;71.60
13426;DHT22;6785;57.918;12.530;2023-06-14T09:17:46;27.40;69.10
13426;DHT22;6785;57.918;12.530;2023-06-14T09:20:12;27.60;69.80
13426;DHT22;6785;57.918;12.530;2023-06-14T09:22:44;27.60;73.60
13426;DHT22;6785;57.918;12.530;2023-06-14T09:25:12;27.50;73.20
13426;DHT22;6785;57.918;12.530;2023-06-14T09:27:40;27.50;71.20
13426;DHT22;6785;57.918;12.530;2023-06-14T09:30:09;27.40;68.70
13426;DHT22;6785;57.918;12.530;2023-06-14T09:32:37;27.40;70.50
13426;DHT22;6785;57.918;12.530;2023-06-14T09:35:06;27.30;70.20
13426;DHT22;6785;57.918;12.530;2023-06-14T09:37:34;27.40;72.70
13426;DHT22;6785;57.918;12.530;2023-06-14T09:40:05;27.60;73.50
13426;DHT22;6785;57.918;12.530;2023-06-14T09:42:33;27.80;73.00
13426;DHT22;6785;57.918;12.530;2023-06-14T09:45:02;27.80;74.00
13426;DHT22;6785;57.918;12.530;2023-06-14T09:47:30;27.80;71.80
13426;DHT22;6785;57.918;12.530;2023-06-14T09:49:57;27.80;73.30
13426;DHT22;6785;57.918;12.530;2023-06-14T09:52:26;27.70;73.30
13426;DHT22;6785;57.918;12.530;2023-06-14T09:54:55;27.50;72.80
13426;DHT22;6785;57.918;12.530;2023-06-14T09:57:23;27.30;72.80
13426;DHT22;6785;57.918;12.530;2023-06-14T09:59:55;27.30;73.40
13426;DHT22;6785;57.918;12.530;2023-06-14T10:02:26;27.40;74.10
13426;DHT22;6785;57.918;12.530;2023-06-14T10:04:58;27.60;74.10
13426;DHT22;6785;57.918;12.530;2023-06-14T10:07:34;27.60;73.80
13426;DHT22;6785;57.918;12.530;2023-06-14T10:10:04;27.70;73.20
13426;DHT22;6785;57.918;12.530;2023-06-14T10:12:34;27.60;73.80
13426;DHT22;6785;57.918;12.530;2023-06-14T10:15:01;27.70;77.40
13426;DHT22;6785;57.918;12.530;2023-06-14T10:17:35;27.80;78.30
13426;DHT22;6785;57.918;12.530;2023-06-14T10:20:19;27.80;74.80
13426;DHT22;6785;57.918;12.530;2023-06-14T10:22:59;27.80;74.40
13426;DHT22;6785;57.918;12.530;2023-06-14T10:25:31;27.70;77.10
13426;DHT22;6785;57.918;12.530;2023-06-14T10:28:16;27.90;74.00
13426;DHT22;6785;57.918;12.530;2023-06-14T10:31:04;28.20;73.80
13426;DHT22;6785;57.918;12.530;2023-06-14T10:33:32;28.10;73.90
13426;DHT22;6785;57.918;12.530;2023-06-14T10:36:28;28.10;72.60
13426;DHT22;6785;57.918;12.530;2023-06-14T10:39:03;28.00;73.40
13426;DHT22;6785;57.918;12.530;2023-06-14T10:41:35;28.10;74.10
13426;DHT22;6785;57.918;12.530;2023-06-14T10:44:43;28.20;74.40
13426;DHT22;6785;57.918;12.530;2023-06-14T10:47:20;28.30;71.40
13426;DHT22;6785;57.918;12.530;2023-06-14T10:49:53;28.20;71.70
13426;DHT22;6785;57.918;12.530;2023-06-14T10:52:23;28.10;73.50
13426;DHT22;6785;57.918;12.530;2023-06-14T10:55:11;28.00;74.20
13426;DHT22;6785;57.918;12.530;2023-06-14T10:57:41;28.10;74.00
13426;DHT22;6785;57.918;12.530;2023-06-14T11:00:13;28.10;77.60
13426;DHT22;6785;57.918;12.530;2023-06-14T11:02:51;28.00;72.90
13426;DHT22;6785;57.918;12.530;2023-06-14T11:05:48;28.00;73.80
13426;DHT22;6785;57.918;12.530;2023-06-14T11:11:51;27.80;74.70
13426;DHT22;6785;57.918;12.530;2023-06-14T11:14:22;27.90;75.10
13426;DHT22;6785;57.918;12.530;2023-06-14T11:16:50;27.60;74.60
13426;DHT22;6785;57.918;12.530;2023-06-14T11:19:17;27.40;79.60
13426;DHT22;6785;57.918;12.530;2023-06-14T11:21:47;27.10;76.60
13426;DHT22;6785;57.918;12.530;2023-06-14T11:24:14;27.10;75.40
13426;DHT22;6785;57.918;12.530;2023-06-14T11:26:41;27.30;74.60
13426;DHT22;6785;57.918;12.530;2023-06-14T11:29:08;27.50;76.40
13426;DHT22;6785;57.918;12.530;2023-06-14T11:31:35;27.70;75.50
13426;DHT22;6785;57.918;12.530;2023-06-14T11:34:04;27.80;75.80
13426;DHT22;6785;57.918;12.530;2023-06-14T11:36:33;27.90;75.40
13426;DHT22;6785;57.918;12.530;2023-06-14T11:39:01;27.70;73.80
13426;DHT22;6785;57.918;12.530;2023-06-14T11:41:38;27.70;75.30
13426;DHT22;6785;57.918;12.530;2023-06-14T11:44:07;27.70;74.90
13426;DHT22;6785;57.918;12.530;2023-06-14T11:46:34;27.50;74.10
13426;DHT22;6785;57.918;12.530;2023-06-14T11:49:02;27.40;76.50
13426;DHT22;6785;57.918;12.530;2023-06-14T11:51:33;27.60;77.20
13426;DHT22;6785;57.918;12.530;2023-06-14T11:54:01;27.90;75.30
13426;DHT22;6785;57.918;12.530;2023-06-14T11:56:29;28.30;74.30
13426;DHT22;6785;57.918;12.530;2023-06-14T11:58:57;28.30;76.50
13426;DHT22;6785;57.918;12.530;2023-06-14T12:01:24;28.00;74.00
13426;DHT22;6785;57.918;12.530;2023-06-14T12:03:53;27.70;75.10
13426;DHT22;6785;57.918;12.530;2023-06-14T12:06:29;27.40;75.10
13426;DHT22;6785;57.918;12.530;2023-06-14T12:09:03;27.10;75.20
13426;DHT22;6785;57.918;12.530;2023-06-14T12:11:33;26.90;75.20
13426;DHT22;6785;57.918;12.530;2023-06-14T12:14:02;26.80;78.00
13426;DHT22;6785;57.918;12.530;2023-06-14T12:16:30;26.70;78.00
13426;DHT22;6785;57.918;12.530;2023-06-14T12:19:01;26.80;78.10
13426;DHT22;6785;57.918;12.530;2023-06-14T12:21:38;27.10;76.40
13426;DHT22;6785;57.918;12.530;2023-06-14T12:24:06;27.60;79.30
13426;DHT22;6785;57.918;12.530;2023-06-14T12:26:33;28.10;76.00
13426;DHT22;6785;57.918;12.530;2023-06-14T12:29:05;28.50;76.30
13426;DHT22;6785;57.918;12.530;2023-06-14T12:31:32;28.90;78.20
13426;DHT22;6785;57.918;12.530;2023-06-14T12:33:59;29.10;74.60
13426;DHT22;6785;57.918;12.530;2023-06-14T12:36:26;28.90;76.50
13426;DHT22;6785;57.918;12.530;2023-06-14T12:38:55;28.60;75.20
13426;DHT22;6785;57.918;12.530;2023-06-14T12:41:22;28.30;75.70
13426;DHT22;6785;57.918;12.530;2023-06-14T12:43:50;28.30;77.80
13426;DHT22;6785;57.918;12.530;2023-06-14T12:46:17;28.60;77.50
13426;DHT22;6785;57.918;12.530;2023-06-14T12:48:44;28.70;73.80
13426;DHT22;6785;57.918;12.530;2023-06-14T12:51:10;28.60;73.80
13426;DHT22;6785;57.918;12.530;2023-06-14T12:53:37;28.60;73.50
13426;DHT22;6785;57.918;12.530;2023-06-14T12:56:06;28.60;73.90
13426;DHT22;6785;57.918;12.530;2023-06-14T12:58:33;28.30;74.60
13426;DHT22;6785;57.918;12.530;2023-06-14T13:01:00;28.10;75.30
13426;DHT22;6785;57.918;12.530;2023-06-14T13:03:27;27.70;74.20
13426;DHT22;6785;57.918;12.530;2023-06-14T13:06:01;27.30;76.00
13426;DHT22;6785;57.918;12.530;2023-06-14T13:08:29;27.30;79.80
13426;DHT22;6785;57.918;12.530;2023-06-14T13:10:56;27.80;81.30
13426;DHT22;6785;57.918;12.530;2023-06-14T13:13:28;28.10;77.60
13426;DHT22;6785;57.918;12.530;2023-06-14T13:15:55;28.40;76.00
13426;DHT22;6785;57.918;12.530;2023-06-14T13:18:22;28.40;74.20
13426;DHT22;6785;57.918;12.530;2023-06-14T13:20:49;28.30;73.70
13426;DHT22;6785;57.918;12.530;2023-06-14T13:23:16;28.50;74.90
13426;DHT22;6785;57.918;12.530;2023-06-14T13:25:44;28.40;73.50
13426;DHT22;6785;57.918;12.530;2023-06-14T13:28:11;28.20;74.10
13426;DHT22;6785;57.918;12.530;2023-06-14T13:30:39;28.20;73.70
13426;DHT22;6785;57.918;12.530;2023-06-14T13:33:06;28.20;72.40
13426;DHT22;6785;57.918;12.530;2023-06-14T13:35:33;28.30;73.20
13426;DHT22;6785;57.918;12.530;2023-06-14T13:38:00;28.60;74.50
13426;DHT22;6785;57.918;12.530;2023-06-14T13:40:27;28.90;74.30
13426;DHT22;6785;57.918;12.530;2023-06-14T13:42:55;29.10;74.70
13426;DHT22;6785;57.918;12.530;2023-06-14T13:45:22;29.10;73.50
13426;DHT22;6785;57.918;12.530;2023-06-14T13:47:50;28.90;74.80
13426;DHT22;6785;57.918;12.530;2023-06-14T13:50:17;28.40;76.10
13426;DHT22;6785;57.918;12.530;2023-06-14T13:52:46;28.20;76.50
13426;DHT22;6785;57.918;12.530;2023-06-14T13:55:13;27.80;76.00
13426;DHT22;6785;57.918;12.530;2023-06-14T13:57:40;27.60;78.20
13426;DHT22;6785;57.918;12.530;2023-06-14T14:00:08;27.30;76.80
13426;DHT22;6785;57.918;12.530;2023-06-14T14:02:36;27.10;77.30
13426;DHT22;6785;57.918;12.530;2023-06-14T14:05:05;27.10;76.70
13426;DHT22;6785;57.918;12.530;2023-06-14T14:07:33;27.40;77.30
13426;DHT22;6785;57.918;12.530;2023-06-14T14:10:01;27.50;76.80
13426;DHT22;6785;57.918;12.530;2023-06-14T14:12:28;27.70;75.20
13426;DHT22;6785;57.918;12.530;2023-06-14T14:14:55;27.90;79.30
13426;DHT22;6785;57.918;12.530;2023-06-14T14:17:23;28.10;75.80
13426;DHT22;6785;57.918;12.530;2023-06-14T14:19:49;28.30;80.00
13426;DHT22;6785;57.918;12.530;2023-06-14T14:22:18;28.40;74.90
13426;DHT22;6785;57.918;12.530;2023-06-14T14:24:45;28.50;74.70
13426;DHT22;6785;57.918;12.530;2023-06-14T14:27:12;28.50;78.20
13426;DHT22;6785;57.918;12.530;2023-06-14T14:29:39;28.70;74.00
13426;DHT22;6785;57.918;12.530;2023-06-14T14:32:07;28.80;73.70
13426;DHT22;6785;57.918;12.530;2023-06-14T14:34:38;28.80;73.50
13426;DHT22;6785;57.918;12.530;2023-06-14T14:37:05;28.60;74.70
13426;DHT22;6785;57.918;12.530;2023-06-14T14:39:34;28.60;74.80
13426;DHT22;6785;57.918;12.530;2023-06-14T14:42:01;28.60;74.90
13426;DHT22;6785;57.918;12.530;2023-06-14T14:44:27;28.40;75.80
13426;DHT22;6785;57.918;12.530;2023-06-14T14:46:57;28.30;75.30
13426;DHT22;6785;57.918;12.530;2023-06-14T14:49:24;28.00;75.80
13426;DHT22;6785;57.918;12.530;2023-06-14T14:51:51;27.80;75.80
13426;DHT22;6785;57.918;12.530;2023-06-14T14:54:18;27.60;75.50
13426;DHT22;6785;57.918;12.530;2023-06-14T14:56:46;27.60;75.70
13426;DHT22;6785;57.918;12.530;2023-06-14T14:59:13;27.60;75.30
13426;DHT22;6785;57.918;12.530;2023-06-14T15:01:40;27.70;76.10
13426;DHT22;6785;57.918;12.530;2023-06-14T15:04:07;27.60;76.20
13426;DHT22;6785;57.918;12.530;2023-06-14T15:06:51;27.60;75.40
13426;DHT22;6785;57.918;12.530;2023-06-14T15:12:36;27.20;76.90
13426;DHT22;6785;57.918;12.530;2023-06-14T15:15:11;27.30;76.50
13426;DHT22;6785;57.918;12.530;2023-06-14T15:17:56;27.30;77.60
13426;DHT22;6785;57.918;12.530;2023-06-14T15:20:45;27.50;77.80
13426;DHT22;6785;57.918;12.530;2023-06-14T15:23:34;27.60;75.70
13426;DHT22;6785;57.918;12.530;2023-06-14T15:26:22;27.50;77.30
13426;DHT22;6785;57.918;12.530;2023-06-14T15:29:03;27.40;79.00
13426;DHT22;6785;57.918;12.530;2023-06-14T15:31:36;27.30;77.80
13426;DHT22;6785;57.918;12.530;2023-06-14T15:34:06;27.20;77.50
13426;DHT22;6785;57.918;12.530;2023-06-14T15:36:33;27.20;76.70
13426;DHT22;6785;57.918;12.530;2023-06-14T15:39:00;27.20;77.40
13426;DHT22;6785;57.918;12.530;2023-06-14T15:41:30;27.20;77.00
13426;DHT22;6785;57.918;12.530;2023-06-14T15:43:57;27.30;75.90
13426;DHT22;6785;57.918;12.530;2023-06-14T15:46:34;27.10;76.20
13426;DHT22;6785;57.918;12.530;2023-06-14T15:49:01;27.20;77.60